Time;durP1;ratioP1;P1;durP2;ratioP2;P2;SDS_P1;SDS_P2;PMS_P1;PMS_P2;Temp;Humidity;BMP_temperature;BMP_pressure;BME280_temperature;BME280_humidity;BME280_pressure;Samples;Min_cycle;Max_cycle;Signal;HPM_P1;HPM_P2
2023/02/04 00:01:51;;;;;;;1.50;1.13;;;;;;;5.20;100.00;97048.25;5098281;28;24496;-74
2023/02/04 00:04:18;;;;;;;1.48;1.20;;;;;;;5.22;100.00;97049.06;5083719;28;24449;-74
2023/02/04 00:06:44;;;;;;;1.42;1.15;;;;;;;5.19;100.00;97059.41;5104225;28;24438;-74
2023/02/04 00:09:11;;;;;;;1.40;1.00;;;;;;;5.20;100.00;97061.09;5093178;28;24450;-73
2023/02/04 00:11:38;;;;;;;1.25;0.93;;;;;;;5.24;100.00;97058.44;5094741;28;24441;-74
2023/02/04 00:14:04;;;;;;;1.35;1.00;;;;;;;5.18;100.00;97063.69;5091712;28;24439;-74
2023/02/04 00:16:31;;;;;;;0.90;0.70;;;;;;;5.15;100.00;97057.78;5103665;28;24824;-74
2023/02/04 00:18:58;;;;;;;1.38;0.95;;;;;;;5.20;100.00;97058.53;5096908;28;24423;-73
2023/02/04 00:21:25;;;;;;;1.08;0.82;;;;;;;5.24;100.00;97050.72;5091908;28;24442;-73
2023/02/04 00:23:51;;;;;;;1.48;0.90;;;;;;;5.18;100.00;97068.81;5100217;28;24449;-73
2023/02/04 00:26:18;;;;;;;1.17;0.90;;;;;;;5.24;100.00;97075.56;5092144;28;24446;-73
2023/02/04 00:28:44;;;;;;;1.23;0.90;;;;;;;5.19;100.00;97070.53;5095812;28;24453;-73
2023/02/04 00:31:11;;;;;;;0.80;0.80;;;;;;;5.16;100.00;97078.31;5089603;28;24426;-74
2023/02/04 00:33:37;;;;;;;1.50;0.80;;;;;;;5.19;100.00;97074.81;5101736;28;24442;-73
2023/02/04 00:36:06;;;;;;;1.45;1.02;;;;;;;5.19;100.00;97075.69;5100559;28;24444;-73
2023/02/04 00:38:32;;;;;;;1.10;0.90;;;;;;;5.19;100.00;97072.22;5101178;28;24441;-73
2023/02/04 00:40:59;;;;;;;1.40;1.00;;;;;;;5.16;100.00;97064.63;5097466;28;24444;-74
2023/02/04 00:43:25;;;;;;;0.80;0.80;;;;;;;5.12;100.00;97060.41;5098362;28;24442;-73
2023/02/04 00:45:52;;;;;;;1.00;0.80;;;;;;;5.08;100.00;97054.50;5099085;28;24792;-74
2023/02/04 00:48:18;;;;;;;1.05;0.90;;;;;;;5.06;100.00;97053.69;5092692;28;24830;-73
2023/02/04 00:50:45;;;;;;;1.75;0.80;;;;;;;5.06;100.00;97062.22;5104838;28;24456;-73
2023/02/04 00:53:12;;;;;;;1.08;0.70;;;;;;;5.07;100.00;97055.38;5095749;28;25010;-73
2023/02/04 00:55:39;;;;;;;1.40;0.70;;;;;;;5.10;100.00;97053.56;5095114;28;24456;-73
2023/02/04 00:58:05;;;;;;;0.60;0.57;;;;;;;5.19;100.00;97056.81;5087795;28;24441;-74
2023/02/04 01:00:32;;;;;;;1.20;0.73;;;;;;;5.21;100.00;97055.94;5105031;28;24430;-74
2023/02/04 01:02:58;;;;;;;0.90;0.70;;;;;;;5.18;100.00;97055.97;5096025;28;24437;-74
2023/02/04 01:05:25;;;;;;;0.60;0.60;;;;;;;5.17;100.00;97063.72;5105839;28;24434;-74
2023/02/04 01:07:51;;;;;;;1.67;0.80;;;;;;;5.14;100.00;97058.66;5096732;28;24437;-74
2023/02/04 01:10:19;;;;;;;1.10;0.65;;;;;;;5.18;100.00;97063.69;5095836;28;24453;-74
2023/02/04 01:12:45;;;;;;;1.40;1.10;;;;;;;5.09;100.00;97064.72;5095072;28;24437;-74
2023/02/04 01:15:12;;;;;;;1.20;0.80;;;;;;;5.14;100.00;97067.19;5093561;28;24445;-74
2023/02/04 01:17:40;;;;;;;0.80;0.73;;;;;;;5.10;100.00;97061.28;5080877;28;24441;-73
2023/02/04 01:20:07;;;;;;;0.85;0.85;;;;;;;5.08;100.00;97062.22;5102156;28;24440;-74
2023/02/04 01:22:34;;;;;;;0.88;0.88;;;;;;;5.11;100.00;97064.69;5096240;28;24465;-74
2023/02/04 01:25:00;;;;;;;0.70;0.60;;;;;;;5.08;100.00;97065.63;5103187;28;24441;-74
2023/02/04 01:27:28;;;;;;;0.73;0.60;;;;;;;5.09;100.00;97066.47;5099225;28;24438;-74
2023/02/04 01:29:54;;;;;;;1.63;0.90;;;;;;;5.07;100.00;97066.47;5095614;28;24461;-74
2023/02/04 01:32:21;;;;;;;0.70;0.68;;;;;;;5.17;100.00;97068.88;5108303;28;24445;-74
2023/02/04 01:34:47;;;;;;;0.65;0.65;;;;;;;5.25;100.00;97067.81;5099386;28;24450;-74
2023/02/04 01:37:14;;;;;;;0.70;0.70;;;;;;;5.17;100.00;97074.00;5104661;28;24449;-73
2023/02/04 01:39:40;;;;;;;0.68;0.60;;;;;;;5.18;100.00;97070.56;5104751;28;24437;-73
2023/02/04 01:42:07;;;;;;;0.80;0.70;;;;;;;5.13;100.00;97072.38;5098278;28;24434;-73
2023/02/04 01:44:35;;;;;;;1.65;0.80;;;;;;;5.13;100.00;97064.69;5097821;28;24470;-73
2023/02/04 01:47:01;;;;;;;0.70;0.60;;;;;;;5.10;100.00;97063.84;5086515;28;24442;-73
2023/02/04 01:49:29;;;;;;;0.90;0.60;;;;;;;5.18;100.00;97062.84;5103435;28;25044;-73
2023/02/04 01:51:55;;;;;;;1.10;0.80;;;;;;;5.17;100.00;97068.88;5099185;28;24426;-74
2023/02/04 01:54:22;;;;;;;0.60;0.52;;;;;;;5.15;100.00;97068.03;5094289;28;24439;-73
2023/02/04 01:56:50;;;;;;;0.70;0.50;;;;;;;5.12;100.00;97065.53;5099287;28;24461;-73
2023/02/04 01:59:18;;;;;;;0.68;0.57;;;;;;;5.16;100.00;97054.34;5101164;28;25029;-73
2023/02/04 02:01:48;;;;;;;0.82;0.50;;;;;;;5.10;100.00;97065.56;5105065;28;24495;-73
2023/02/04 02:04:17;;;;;;;0.70;0.50;;;;;;;5.18;100.00;97057.72;5088987;28;24445;-73
2023/02/04 02:06:47;;;;;;;0.73;0.70;;;;;;;5.15;100.00;97062.91;5105495;28;24441;-73
2023/02/04 02:09:14;;;;;;;1.00;0.60;;;;;;;5.08;100.00;97063.06;5099968;28;24449;-73
2023/02/04 02:11:40;;;;;;;0.73;0.50;;;;;;;5.15;100.00;97062.91;5091863;28;24438;-73
2023/02/04 02:14:07;;;;;;;1.00;0.60;;;;;;;5.18;100.00;97060.28;5090641;28;24458;-73
2023/02/04 02:16:34;;;;;;;0.65;0.50;;;;;;;5.16;100.00;97059.47;5106602;28;24441;-73
2023/02/04 02:19:02;;;;;;;0.90;0.68;;;;;;;5.19;100.00;97059.41;5103284;28;24804;-74
2023/02/04 02:21:35;;;;;;;1.02;0.70;;;;;;;5.16;100.00;97056.91;5095728;28;24438;-74
2023/02/04 02:24:24;;;;;;;0.70;0.60;;;;;;;5.14;100.00;97051.78;5103428;28;24438;-74
2023/02/04 02:26:51;;;;;;;0.98;0.75;;;;;;;5.18;100.00;97053.41;5098474;28;24442;-73
2023/02/04 02:29:18;;;;;;;0.60;0.50;;;;;;;5.16;100.00;97055.19;5102656;28;24484;-74
2023/02/04 02:31:44;;;;;;;0.75;0.65;;;;;;;5.16;100.00;97062.91;5101898;28;24429;-73
2023/02/04 02:34:11;;;;;;;0.80;0.65;;;;;;;5.17;100.00;97054.31;5105376;28;25009;-73
2023/02/04 02:36:38;;;;;;;0.57;0.50;;;;;;;5.14;100.00;97064.63;5105465;28;24449;-73
2023/02/04 02:39:06;;;;;;;0.98;0.70;;;;;;;5.12;100.00;97061.28;5095116;28;24789;-73
2023/02/04 02:41:32;;;;;;;1.90;0.63;;;;;;;5.17;100.00;97063.72;5099306;28;24437;-73
2023/02/04 02:43:59;;;;;;;0.50;0.50;;;;;;;5.14;100.00;97066.34;5102456;28;25017;-74
2023/02/04 02:46:25;;;;;;;0.73;0.60;;;;;;;5.10;100.00;97058.72;5105257;28;24445;-74
2023/02/04 02:48:52;;;;;;;0.50;0.50;;;;;;;5.13;100.00;97068.09;5097503;28;24437;-74
2023/02/04 02:51:19;;;;;;;0.40;0.40;;;;;;;5.20;100.00;97068.81;5103505;28;24461;-74
2023/02/04 02:53:47;;;;;;;2.45;0.60;;;;;;;5.21;100.00;97073.91;5101369;28;24443;-74
2023/02/04 02:56:15;;;;;;;1.95;0.50;;;;;;;5.15;100.00;97089.44;5104444;28;25218;-74
2023/02/04 02:58:41;;;;;;;0.40;0.40;;;;;;;5.18;100.00;97088.53;5094801;28;24800;-74
2023/02/04 03:01:09;;;;;;;0.80;0.52;;;;;;;5.15;100.00;97096.28;5099299;28;25353;-74
2023/02/04 03:03:38;;;;;;;0.47;0.38;;;;;;;5.13;100.00;97092.94;5102431;28;24449;-74
2023/02/04 03:06:11;;;;;;;1.53;0.40;;;;;;;5.17;100.00;97097.97;5097302;28;24809;-74
2023/02/04 03:08:38;;;;;;;1.70;0.55;;;;;;;5.15;100.00;97097.13;5095436;28;24437;-74
2023/02/04 03:11:05;;;;;;;0.63;0.55;;;;;;;5.16;100.00;97108.28;5104623;28;24453;-73
2023/02/04 03:13:33;;;;;;;0.32;0.25;;;;;;;5.15;100.00;97107.41;5101096;28;24440;-73
2023/02/04 03:16:00;;;;;;;0.63;0.50;;;;;;;5.16;100.00;97108.28;5093292;28;24434;-74
2023/02/04 03:18:27;;;;;;;1.30;0.60;;;;;;;5.50;100.00;97111.00;5094293;28;24430;-73
2023/02/04 03:20:53;;;;;;;0.50;0.40;;;;;;;5.37;100.00;97115.53;5097774;28;24436;-73
2023/02/04 03:23:20;;;;;;;0.70;0.40;;;;;;;5.51;100.00;97112.66;5104721;28;24455;-73
2023/02/04 03:25:47;;;;;;;0.52;0.52;;;;;;;5.36;100.00;97115.56;5094549;28;24431;-73
2023/02/04 03:28:13;;;;;;;0.32;0.32;;;;;;;5.29;100.00;97114.84;5098657;28;24444;-73
2023/02/04 03:30:41;;;;;;;0.50;0.40;;;;;;;5.22;100.00;97116.69;5094833;28;24457;-74
2023/02/04 03:33:08;;;;;;;0.32;0.30;;;;;;;5.17;100.00;97120.25;5103073;28;25054;-73
2023/02/04 03:35:34;;;;;;;0.30;0.22;;;;;;;5.15;100.00;97119.41;5102177;28;24457;-73
2023/02/04 03:38:01;;;;;;;0.70;0.40;;;;;;;5.19;100.00;97116.78;5093841;28;24442;-73
2023/02/04 03:40:28;;;;;;;1.45;0.30;;;;;;;5.20;100.00;97126.16;5099352;28;24433;-73
2023/02/04 03:42:55;;;;;;;1.10;0.40;;;;;;;5.16;100.00;97133.97;5097724;28;24541;-74
2023/02/04 03:45:21;;;;;;;1.83;0.50;;;;;;;5.17;100.00;97139.06;5100396;28;24441;-74
2023/02/04 03:47:49;;;;;;;3.50;0.60;;;;;;;5.08;100.00;97137.53;5093206;28;24441;-73
2023/02/04 03:50:16;;;;;;;2.00;0.60;;;;;;;5.00;100.00;97147.06;5093152;28;24446;-73
2023/02/04 03:52:43;;;;;;;0.80;0.40;;;;;;;4.93;100.00;97158.34;5099042;28;24857;-73
2023/02/04 03:55:10;;;;;;;1.80;0.50;;;;;;;5.13;100.00;97152.00;5099849;28;24530;-73
2023/02/04 03:57:36;;;;;;;2.00;0.57;;;;;;;5.01;100.00;97156.47;5098195;28;24434;-73
2023/02/04 04:00:03;;;;;;;1.95;0.77;;;;;;;4.93;100.00;97170.31;5103740;28;24433;-73
2023/02/04 04:02:30;;;;;;;1.77;0.70;;;;;;;4.93;100.00;97183.16;5103376;28;24786;-74
2023/02/04 04:04:57;;;;;;;2.20;0.80;;;;;;;4.91;100.00;97182.34;5094381;28;25005;-74
2023/02/04 04:07:24;;;;;;;2.27;0.90;;;;;;;5.03;100.00;97179.56;5093960;28;24802;-74
2023/02/04 04:09:50;;;;;;;1.20;0.67;;;;;;;4.99;100.00;97183.06;5091587;28;24884;-74
2023/02/04 04:12:17;;;;;;;5.07;1.00;;;;;;;4.91;100.00;97178.06;5101802;28;24953;-73
2023/02/04 04:14:43;;;;;;;3.53;0.98;;;;;;;5.00;100.00;97177.88;5094002;28;24449;-73
2023/02/04 04:17:09;;;;;;;2.22;0.70;;;;;;;4.88;100.00;97177.28;5091052;28;24450;-74
2023/02/04 04:19:36;;;;;;;1.85;0.70;;;;;;;4.97;100.00;97192.50;5090540;28;24465;-73
2023/02/04 04:22:04;;;;;;;3.30;0.85;;;;;;;4.80;100.00;97187.66;5091713;28;24465;-74
2023/02/04 04:24:30;;;;;;;0.73;0.40;;;;;;;4.75;100.00;97204.88;5094474;28;24538;-73
2023/02/04 04:26:57;;;;;;;1.48;0.60;;;;;;;4.78;100.00;97194.53;5103263;28;24441;-73
2023/02/04 04:29:23;;;;;;;4.30;0.60;;;;;;;4.76;100.00;97197.13;5101624;28;24445;-73
2023/02/04 04:31:50;;;;;;;0.80;0.50;;;;;;;4.75;100.00;97203.16;5100952;28;24457;-73
2023/02/04 04:34:16;;;;;;;2.03;0.60;;;;;;;5.05;100.00;97199.19;5103662;28;24994;-73
2023/02/04 04:36:43;;;;;;;1.60;0.60;;;;;;;5.02;100.00;97201.81;5092463;28;25088;-74
2023/02/04 04:39:11;;;;;;;1.48;0.70;;;;;;;5.03;100.00;97207.81;5104797;28;24826;-73
2023/02/04 04:41:37;;;;;;;1.60;0.68;;;;;;;4.94;100.00;97210.53;5094095;28;24445;-74
2023/02/04 04:44:03;;;;;;;3.20;0.90;;;;;;;4.93;100.00;97219.97;5100706;28;24456;-74
2023/02/04 04:46:30;;;;;;;1.27;0.60;;;;;;;4.93;100.00;97221.66;5092315;28;24437;-74
2023/02/04 04:48:56;;;;;;;2.88;0.70;;;;;;;4.76;100.00;97224.53;5092749;28;24468;-74
2023/02/04 04:51:23;;;;;;;1.70;0.85;;;;;;;4.68;100.00;97231.53;5095245;28;24454;-74
2023/02/04 04:53:50;;;;;;;2.17;0.70;;;;;;;4.89;100.00;97230.28;5086279;28;24433;-74
2023/02/04 04:56:18;;;;;;;1.98;0.85;;;;;;;4.83;100.00;97234.66;5096667;28;25023;-74
2023/02/04 04:58:45;;;;;;;1.95;0.85;;;;;;;4.92;100.00;97225.13;5086174;28;24967;-74
2023/02/04 05:01:11;;;;;;;3.03;1.23;;;;;;;4.54;100.00;97219.75;5101493;28;24430;-74
2023/02/04 05:03:38;;;;;;;7.03;1.50;;;;;;;4.40;100.00;97213.13;5090258;28;24454;-74
2023/02/04 05:06:05;;;;;;;7.30;1.42;;;;;;;4.19;100.00;97212.59;5097244;28;24441;-74
2023/02/04 05:08:33;;;;;;;3.70;1.25;;;;;;;4.00;100.00;97211.97;5092276;28;24434;-74
2023/02/04 05:10:59;;;;;;;3.80;1.37;;;;;;;3.96;100.00;97212.88;5085389;28;24938;-74
2023/02/04 05:13:27;;;;;;;6.40;1.40;;;;;;;3.92;100.00;97229.19;5092575;28;24484;-73
2023/02/04 05:15:53;;;;;;;12.38;1.58;;;;;;;4.00;100.00;97223.94;5102530;28;24433;-74
2023/02/04 05:18:20;;;;;;;6.20;1.55;;;;;;;3.96;100.00;97223.16;5096906;28;24445;-74
2023/02/04 05:20:46;;;;;;;3.60;1.27;;;;;;;3.93;100.00;97222.34;5090219;28;24437;-73
2023/02/04 05:23:13;;;;;;;5.80;1.70;;;;;;;3.83;100.00;97225.03;5089121;28;24446;-74
2023/02/04 05:25:39;;;;;;;4.57;1.75;;;;;;;3.79;100.00;97222.53;5095160;28;25079;-74
2023/02/04 05:28:06;;;;;;;6.68;1.40;;;;;;;3.80;100.00;97219.94;5097434;28;24813;-74
2023/02/04 05:30:33;;;;;;;5.60;1.58;;;;;;;3.79;100.00;97217.41;5101224;28;24457;-73
2023/02/04 05:33:00;;;;;;;5.43;1.75;;;;;;;3.77;100.00;97224.25;5097534;28;24446;-73
2023/02/04 05:35:26;;;;;;;3.42;1.40;;;;;;;3.83;100.00;97231.88;5090011;28;24438;-74
2023/02/04 05:37:53;;;;;;;5.72;1.67;;;;;;;3.82;100.00;97238.72;5099962;28;24441;-74
2023/02/04 05:40:20;;;;;;;5.75;1.67;;;;;;;3.82;100.00;97241.28;5098801;28;24436;-74
2023/02/04 05:42:46;;;;;;;6.00;1.73;;;;;;;3.80;100.00;97237.88;5102744;28;24434;-74
2023/02/04 05:45:15;;;;;;;6.25;2.15;;;;;;;3.86;100.00;97240.38;5090903;28;24450;-74
2023/02/04 05:47:43;;;;;;;8.38;2.25;;;;;;;3.76;100.00;97240.50;5085827;28;24437;-74
2023/02/04 05:50:10;;;;;;;8.45;2.00;;;;;;;3.87;100.00;97242.06;5098803;28;24437;-74
2023/02/04 05:52:36;;;;;;;6.65;2.10;;;;;;;3.82;100.00;97248.09;5095570;28;24436;-74
2023/02/04 05:55:03;;;;;;;5.93;1.90;;;;;;;3.79;100.00;97243.03;5095870;28;25033;-74
2023/02/04 05:57:30;;;;;;;7.35;1.77;;;;;;;3.84;100.00;97246.38;5092382;28;24434;-74
2023/02/04 05:59:56;;;;;;;9.30;1.67;;;;;;;3.80;100.00;97248.13;5102309;28;25052;-74
2023/02/04 06:02:22;;;;;;;4.83;1.70;;;;;;;3.78;100.00;97243.88;5094261;28;24914;-74
2023/02/04 06:04:51;;;;;;;7.03;2.00;;;;;;;3.73;100.00;97253.34;5094275;28;24444;-74
2023/02/04 06:07:17;;;;;;;8.80;2.00;;;;;;;3.71;100.00;97257.63;5095483;28;24487;-75
2023/02/04 06:09:44;;;;;;;6.13;2.10;;;;;;;3.72;100.00;97260.19;5093539;28;24441;-75
2023/02/04 06:12:11;;;;;;;5.30;1.92;;;;;;;3.74;100.00;97262.72;5102315;28;24497;-75
2023/02/04 06:14:37;;;;;;;7.25;2.05;;;;;;;3.73;100.00;97264.44;5097123;28;24477;-73
2023/02/04 06:17:04;;;;;;;11.00;2.30;;;;;;;3.71;100.00;97263.63;5107700;28;24426;-75
2023/02/04 06:19:32;;;;;;;5.85;1.83;;;;;;;3.68;100.00;97268.78;5095805;28;24426;-75
2023/02/04 06:22:00;;;;;;;6.30;2.40;;;;;;;3.65;100.00;97268.81;5105637;28;24434;-76
2023/02/04 06:24:26;;;;;;;8.70;2.30;;;;;;;3.66;100.00;97267.94;5095747;28;24445;-75
2023/02/04 06:26:53;;;;;;;4.97;1.80;;;;;;;3.65;100.00;97271.38;5095917;28;24445;-74
2023/02/04 06:29:19;;;;;;;8.60;2.72;;;;;;;3.62;100.00;97274.81;5098609;28;25696;-75
2023/02/04 06:31:47;;;;;;;7.20;2.50;;;;;;;3.58;100.00;97280.84;5102887;28;24449;-75
2023/02/04 06:34:14;;;;;;;7.03;2.40;;;;;;;3.67;100.00;97284.16;5095608;28;24804;-72
2023/02/04 06:36:40;;;;;;;7.60;2.60;;;;;;;3.63;100.00;97291.91;5087693;28;24971;-75
2023/02/04 06:39:08;;;;;;;10.13;2.50;;;;;;;3.65;100.00;97297.00;5099777;28;24457;-75
2023/02/04 06:41:34;;;;;;;6.75;2.33;;;;;;;3.62;100.00;97305.56;5094541;28;24445;-75
2023/02/04 06:44:01;;;;;;;7.10;2.08;;;;;;;3.68;100.00;97307.22;5104613;28;24444;-75
2023/02/04 06:46:27;;;;;;;6.63;2.25;;;;;;;3.73;100.00;97305.44;5093719;28;24434;-75
2023/02/04 06:48:55;;;;;;;11.43;2.80;;;;;;;3.68;100.00;97314.91;5094660;28;24497;-75
2023/02/04 06:51:21;;;;;;;6.60;2.22;;;;;;;3.74;100.00;97316.53;5099368;28;24446;-76
2023/02/04 06:53:48;;;;;;;12.80;4.15;;;;;;;3.62;100.00;97314.97;5094022;28;24448;-76
2023/02/04 06:56:16;;;;;;;7.45;2.63;;;;;;;3.51;100.00;97320.19;5097490;28;24533;-75
2023/02/04 06:58:42;;;;;;;7.37;2.87;;;;;;;3.52;100.00;97319.34;5094590;28;24430;-76
2023/02/04 07:01:08;;;;;;;8.70;2.83;;;;;;;3.47;100.00;97321.09;5102903;28;24444;-76
2023/02/04 07:03:35;;;;;;;10.43;3.40;;;;;;;3.45;100.00;97324.53;5083021;28;24508;-76
2023/02/04 07:06:01;;;;;;;7.73;3.23;;;;;;;3.45;100.00;97334.78;5093502;28;24430;-75
2023/02/04 07:08:28;;;;;;;7.63;3.17;;;;;;;3.41;100.00;97339.06;5092334;28;24441;-75
2023/02/04 07:10:54;;;;;;;7.33;2.47;;;;;;;3.48;100.00;97338.16;5095188;28;24445;-75
2023/02/04 07:13:22;;;;;;;11.48;3.40;;;;;;;3.44;100.00;97338.22;5094740;28;24449;-77
2023/02/04 07:15:48;;;;;;;8.88;3.08;;;;;;;3.38;100.00;97339.97;5090850;28;24433;-74
2023/02/04 07:18:15;;;;;;;8.63;2.92;;;;;;;3.41;100.00;97328.81;5099954;28;24465;-73
2023/02/04 07:20:41;;;;;;;10.60;3.67;;;;;;;3.38;100.00;97339.13;5092769;28;24441;-74
2023/02/04 07:23:08;;;;;;;7.40;2.90;;;;;;;3.39;100.00;97341.66;5093094;28;24445;-75
2023/02/04 07:25:34;;;;;;;9.23;3.58;;;;;;;3.43;100.00;97339.94;5088581;28;24445;-75
2023/02/04 07:28:04;;;;;;;13.70;3.50;;;;;;;3.44;100.00;97338.22;5091342;28;24456;-75
2023/02/04 07:30:31;;;;;;;10.30;3.50;;;;;;;3.53;100.00;97344.09;5085496;28;25007;-75
2023/02/04 07:32:58;;;;;;;6.57;2.78;;;;;;;3.58;100.00;97342.34;5088813;28;24511;-75
2023/02/04 07:35:25;;;;;;;14.03;3.40;;;;;;;3.62;100.00;97348.28;5092891;28;24468;-75
2023/02/04 07:37:51;;;;;;;8.80;3.30;;;;;;;3.63;100.00;97345.72;5099204;28;24438;-75
2023/02/04 07:40:18;;;;;;;10.43;3.80;;;;;;;3.67;100.00;97358.47;5091688;28;25022;-75
2023/02/04 07:42:44;;;;;;;11.15;4.03;;;;;;;3.82;100.00;97360.88;5096691;28;24438;-75
2023/02/04 07:45:11;;;;;;;11.25;3.22;;;;;;;3.74;100.00;97363.50;5095634;28;24436;-75
2023/02/04 07:47:39;;;;;;;6.43;3.28;;;;;;;3.78;100.00;97372.03;5095711;28;24430;-75
2023/02/04 07:50:06;;;;;;;11.25;3.80;;;;;;;3.67;100.00;97373.84;5091877;28;24434;-75
2023/02/04 07:52:32;;;;;;;7.78;3.22;;;;;;;3.68;100.00;97368.72;5087876;28;24458;-75
2023/02/04 07:54:58;;;;;;;10.63;3.92;;;;;;;3.67;100.00;97369.59;5092245;28;24442;-75
2023/02/04 07:57:25;;;;;;;8.05;3.30;;;;;;;3.67;100.00;97368.72;5096010;28;24426;-75
2023/02/04 07:59:51;;;;;;;14.50;4.28;;;;;;;3.67;100.00;97378.97;5096303;28;24436;-75
2023/02/04 08:02:18;;;;;;;9.57;4.20;;;;;;;3.73;100.00;97381.47;5093413;28;24441;-75
2023/02/04 08:04:46;;;;;;;11.05;3.50;;;;;;;3.70;100.00;97368.69;5091551;28;24460;-74
2023/02/04 08:07:12;;;;;;;14.48;4.57;;;;;;;3.58;100.00;97370.50;5086917;28;24983;-75
2023/02/04 08:09:38;;;;;;;7.35;3.20;;;;;;;3.63;100.00;97385.84;5087386;28;24445;-74
2023/02/04 08:12:05;;;;;;;7.95;3.60;;;;;;;3.73;100.00;97381.47;5098022;28;24865;-74
2023/02/04 08:14:32;;;;;;;15.35;3.65;;;;;;;3.81;100.00;97375.41;5087013;28;24809;-75
2023/02/04 08:16:58;;;;;;;14.10;4.03;;;;;;;3.84;100.00;97385.63;5098911;28;24465;-75
2023/02/04 08:19:25;;;;;;;9.60;3.70;;;;;;;3.84;100.00;97389.91;5090607;28;24449;-75
2023/02/04 08:21:53;;;;;;;10.67;3.53;;;;;;;4.06;100.00;97390.53;5091078;28;24441;-75
2023/02/04 08:24:20;;;;;;;9.30;3.47;;;;;;;4.24;100.00;97394.59;5089784;28;24520;-76
2023/02/04 08:26:46;;;;;;;9.03;3.60;;;;;;;4.13;100.00;97399.84;5094628;28;24536;-75
2023/02/04 08:29:13;;;;;;;11.27;3.77;;;;;;;3.96;100.00;97410.28;5087541;28;24547;-75
2023/02/04 08:31:39;;;;;;;13.27;3.87;;;;;;;3.97;100.00;97409.44;5084765;28;24516;-76
2023/02/04 08:34:06;;;;;;;9.45;3.65;;;;;;;3.82;100.00;97422.38;5080388;28;24434;-75
2023/02/04 08:36:33;;;;;;;12.05;4.07;;;;;;;4.07;100.00;97425.53;5094158;28;24438;-76
2023/02/04 08:39:01;;;;;;;8.85;3.40;;;;;;;4.09;100.00;97423.84;5093089;28;24449;-75
2023/02/04 08:41:27;;;;;;;14.35;4.47;;;;;;;3.99;100.00;97429.91;5085012;28;24453;-76
2023/02/04 08:43:54;;;;;;;12.23;3.92;;;;;;;3.85;100.00;97425.75;5095566;28;24441;-75
2023/02/04 08:46:20;;;;;;;15.38;4.43;;;;;;;3.91;100.00;97422.31;5092121;28;24497;-76
2023/02/04 08:48:47;;;;;;;12.25;4.10;;;;;;;3.79;100.00;97418.16;5088407;28;24449;-76
2023/02/04 08:51:14;;;;;;;14.35;4.60;;;;;;;3.70;100.00;97431.03;5091942;28;24979;-76
2023/02/04 08:53:40;;;;;;;19.23;4.65;;;;;;;3.66;100.00;97433.66;5092455;28;24438;-75
2023/02/04 08:56:09;;;;;;;16.38;5.07;;;;;;;3.73;100.00;97433.56;5086129;28;24427;-76
2023/02/04 08:58:35;;;;;;;11.38;4.70;;;;;;;3.62;100.00;97423.41;5095663;28;24472;-76
2023/02/04 09:01:02;;;;;;;12.02;4.72;;;;;;;3.63;100.00;97430.25;5093484;28;24468;-76
2023/02/04 09:03:29;;;;;;;12.55;4.30;;;;;;;3.68;100.00;97435.34;5086931;28;24470;-76
2023/02/04 09:05:55;;;;;;;13.95;4.68;;;;;;;3.69;100.00;97446.44;5087772;28;24441;-76
2023/02/04 09:08:21;;;;;;;11.55;4.47;;;;;;;3.88;100.00;97443.69;5099491;28;24422;-75
2023/02/04 09:10:48;;;;;;;12.93;4.65;;;;;;;4.04;100.00;97449.53;5087962;28;24438;-75
2023/02/04 09:13:16;;;;;;;14.57;5.00;;;;;;;3.85;100.00;97450.53;5097542;28;24457;-74
2023/02/04 09:15:42;;;;;;;13.50;4.65;;;;;;;3.82;100.00;97456.56;5087181;28;24429;-75
2023/02/04 09:18:15;;;;;;;12.77;4.30;;;;;;;3.89;100.00;97465.03;5098153;28;24456;-75
2023/02/04 09:20:41;;;;;;;11.77;4.93;;;;;;;3.91;100.00;97457.34;5090681;28;24427;-75
2023/02/04 09:23:10;;;;;;;14.75;4.07;;;;;;;3.97;100.00;97459.81;5097175;28;24543;-75
2023/02/04 09:25:37;;;;;;;16.42;4.03;;;;;;;3.94;100.00;97462.44;5080759;28;24528;-75
2023/02/04 09:28:04;;;;;;;14.98;4.25;;;;;;;4.00;100.00;97452.97;5089870;28;24441;-76
2023/02/04 09:30:31;;;;;;;17.42;4.80;;;;;;;4.13;100.00;97457.09;5098371;28;24441;-75
2023/02/04 09:32:58;;;;;;;15.10;4.30;;;;;;;4.09;100.00;97465.69;5089936;28;25033;-75
2023/02/04 09:35:24;;;;;;;11.85;4.13;;;;;;;4.10;100.00;97469.97;5090998;28;24975;-75
2023/02/04 09:37:51;;;;;;;15.13;4.55;;;;;;;4.38;100.00;97486.78;5095415;28;24441;-75
2023/02/04 09:40:19;;;;;;;16.52;3.90;;;;;;;4.25;100.00;97476.63;5098207;28;24434;-76
2023/02/04 09:42:48;;;;;;;15.40;4.00;;;;;;;4.38;100.00;97479.09;5088617;28;24434;-75
2023/02/04 09:45:17;;;;;;;13.43;4.20;;;;;;;4.28;100.00;97483.47;5090524;28;24446;-75
2023/02/04 09:47:45;;;;;;;11.85;4.38;;;;;;;4.29;100.00;97490.28;5097375;28;24445;-75
2023/02/04 09:50:15;;;;;;;11.35;3.67;;;;;;;4.41;100.00;97486.72;5093601;28;24441;-74
2023/02/04 09:52:41;;;;;;;19.92;4.20;;;;;;;4.50;100.00;97490.06;5095263;28;24446;-75
2023/02/04 09:55:12;;;;;;;14.48;4.28;;;;;;;4.57;100.00;97495.97;5090898;28;24465;-75
2023/02/04 09:57:40;;;;;;;13.02;4.32;;;;;;;4.48;100.00;97491.78;5104472;28;24453;-76
2023/02/04 10:00:14;;;;;;;13.35;4.13;;;;;;;4.50;100.00;97502.03;5097235;28;24430;-75
2023/02/04 10:02:41;;;;;;;11.23;4.10;;;;;;;4.54;100.00;97496.84;5083431;28;24987;-76
2023/02/04 10:05:14;;;;;;;16.33;4.35;;;;;;;4.53;100.00;97499.44;5087349;28;24442;-76
2023/02/04 10:07:41;;;;;;;22.92;4.72;;;;;;;4.46;100.00;97500.38;5097702;28;25021;-76
2023/02/04 10:10:16;;;;;;;18.33;4.55;;;;;;;4.45;100.00;97501.22;5088117;28;24473;-76
2023/02/04 10:12:42;;;;;;;13.23;3.90;;;;;;;4.54;100.00;97506.28;5092939;28;24456;-75
2023/02/04 10:15:14;;;;;;;17.38;4.78;;;;;;;4.45;100.00;97493.53;5090872;28;24437;-76
2023/02/04 10:17:41;;;;;;;21.85;4.75;;;;;;;4.34;100.00;97501.38;5091368;28;24430;-75
2023/02/04 10:20:14;;;;;;;17.63;4.45;;;;;;;4.51;100.00;97501.16;5092653;28;24433;-75
2023/02/04 10:22:40;;;;;;;14.23;4.35;;;;;;;4.87;100.00;97505.03;5094990;28;24430;-77
2023/02/04 10:25:12;;;;;;;17.77;4.55;;;;;;;4.82;100.00;97493.94;5095268;28;25144;-77
2023/02/04 10:27:48;;;;;;;12.05;4.15;;;;;;;4.75;100.00;97495.75;5101460;28;24518;-76
2023/02/04 10:30:19;;;;;;;12.48;4.18;;;;;;;5.04;100.00;97490.25;5093954;28;24846;-77
2023/02/04 10:32:46;;;;;;;19.67;4.30;;;;;;;5.25;100.00;97490.81;5088559;28;24550;-77
2023/02/04 10:35:15;;;;;;;17.15;4.78;;;;;;;5.10;100.00;97497.00;5096976;28;24442;-76
2023/02/04 10:37:42;;;;;;;14.90;4.32;;;;;;;5.16;100.00;97501.22;5089526;28;24437;-76
2023/02/04 10:40:26;;;;;;;13.63;3.85;;;;;;;5.07;100.00;97486.78;5086271;28;25007;-77
2023/02/04 10:42:52;;;;;;;14.88;4.13;;;;;;;5.07;100.00;97489.34;5091084;28;25010;-76
2023/02/04 10:45:24;;;;;;;17.40;3.95;;;;;;;4.91;100.00;97483.56;5101072;28;24453;-76
2023/02/04 10:47:51;;;;;;;18.90;4.55;;;;;;;4.74;100.00;97493.19;5100978;28;24440;-76
2023/02/04 10:50:21;;;;;;;19.08;4.07;;;;;;;4.90;100.00;97489.59;5094758;28;24441;-76
2023/02/04 10:52:50;;;;;;;15.10;4.03;;;;;;;5.00;100.00;97498.84;5088558;28;24844;-76
2023/02/04 10:55:18;;;;;;;13.32;4.35;;;;;;;5.09;100.00;97496.16;5101555;28;24457;-76
2023/02/04 10:57:47;;;;;;;21.58;4.53;;;;;;;5.30;100.00;97496.72;5099141;28;24442;-76
2023/02/04 11:00:17;;;;;;;12.15;3.58;;;;;;;5.69;100.00;97492.72;5099299;28;24442;-76
2023/02/04 11:02:45;;;;;;;12.70;3.60;;;;;;;6.19;100.00;97492.75;5086946;28;24441;-76
2023/02/04 11:05:15;;;;;;;13.77;3.75;;;;;;;6.03;100.00;97497.34;5083323;28;24462;-76
2023/02/04 11:07:44;;;;;;;13.77;3.50;;;;;;;6.24;100.00;97491.81;5089199;28;25086;-75
2023/02/04 11:10:14;;;;;;;15.37;3.63;;;;;;;5.94;100.00;97489.78;5085808;28;24441;-76
2023/02/04 11:12:42;;;;;;;10.30;3.53;;;;;;;6.03;100.00;97494.75;5088363;28;24452;-76
2023/02/04 11:15:40;;;;;;;18.95;4.15;;;;;;;5.51;100.00;97485.28;5091889;28;24542;-76
2023/02/04 11:18:09;;;;;;;13.45;3.63;;;;;;;5.44;100.00;97491.41;5100230;28;25076;-76
2023/02/04 11:20:38;;;;;;;12.30;3.75;;;;;;;5.29;100.00;97495.03;5080955;28;24542;-76
2023/02/04 11:23:29;;;;;;;11.02;3.20;;;;;;;5.23;100.00;97493.41;5097880;28;25020;-76
2023/02/04 11:26:03;;;;;;;15.35;3.63;;;;;;;5.04;100.00;97492.81;5081729;28;24470;-76
2023/02/04 11:28:54;;;;;;;15.75;3.45;;;;;;;5.26;100.00;97497.63;5094787;28;24438;-76
2023/02/04 11:31:42;;;;;;;11.27;3.30;;;;;;;5.44;100.00;97494.81;5096191;28;25015;-76
2023/02/04 11:34:24;;;;;;;13.48;3.70;;;;;;;5.44;100.00;97488.81;5103529;28;24457;-75